createdAt,value
2017-10-09T00:01:50.106Z,6.60
2017-10-09T00:04:18.159Z,6.97
2017-10-09T00:06:46.240Z,6.63
2017-10-09T00:09:14.306Z,5.60
2017-10-09T00:11:42.395Z,5.30
2017-10-09T00:14:10.463Z,6.03
2017-10-09T00:16:38.562Z,6.03
2017-10-09T00:19:06.628Z,6.50
2017-10-09T00:21:34.687Z,5.57
2017-10-09T00:24:02.760Z,5.80
2017-10-09T00:26:31.591Z,5.40
2017-10-09T00:28:59.671Z,6.37
2017-10-09T00:31:27.741Z,5.30
2017-10-09T00:33:55.837Z,5.63
2017-10-09T00:36:23.884Z,5.60
2017-10-09T00:38:51.958Z,6.07
2017-10-09T00:41:20.047Z,6.07
2017-10-09T00:43:48.092Z,5.60
2017-10-09T00:46:16.158Z,6.27
2017-10-09T00:48:44.232Z,5.50
2017-10-09T00:51:12.323Z,5.50
2017-10-09T00:53:40.405Z,5.67
2017-10-09T00:56:08.479Z,5.70
2017-10-09T00:58:36.571Z,6.37
2017-10-09T01:01:05.409Z,5.60
2017-10-09T01:03:33.493Z,5.83
2017-10-09T01:06:01.593Z,5.80
2017-10-09T01:08:29.670Z,5.90
2017-10-09T01:10:58.543Z,6.83
2017-10-09T01:13:26.594Z,5.60
2017-10-09T01:15:54.679Z,5.90
2017-10-09T01:18:22.736Z,5.57
2017-10-09T01:20:50.806Z,6.00
2017-10-09T01:23:18.876Z,6.07
2017-10-09T01:25:47.743Z,6.13
2017-10-09T01:28:15.825Z,6.13
2017-10-09T01:30:43.878Z,6.33
2017-10-09T01:33:11.956Z,6.10
2017-10-09T01:35:40.011Z,5.67
2017-10-09T01:38:08.858Z,6.43
2017-10-09T01:40:37.689Z,5.97
2017-10-09T01:43:05.773Z,6.10
2017-10-09T01:45:33.859Z,6.57
2017-10-09T01:48:01.926Z,7.27
2017-10-09T01:50:29.998Z,6.30
2017-10-09T01:52:58.060Z,5.80
2017-10-09T01:55:26.411Z,6.17
2017-10-09T01:57:54.475Z,6.00
2017-10-09T02:00:22.543Z,6.97
2017-10-09T02:02:50.636Z,5.20
2017-10-09T02:05:18.720Z,5.67
2017-10-09T02:07:46.790Z,6.60
2017-10-09T02:10:14.862Z,6.00
2017-10-09T02:12:42.957Z,5.40
2017-10-09T02:15:11.038Z,7.80
2017-10-09T02:17:39.102Z,6.30
2017-10-09T02:20:07.934Z,6.00
2017-10-09T02:22:36.035Z,5.70
2017-10-09T02:25:04.106Z,6.70
2017-10-09T02:27:32.174Z,5.57
2017-10-09T02:30:00.255Z,7.10
2017-10-09T02:32:28.326Z,7.67
2017-10-09T02:34:56.379Z,6.40
2017-10-09T02:37:24.459Z,6.47
2017-10-09T02:39:52.547Z,6.87
2017-10-09T02:42:20.618Z,6.03
2017-10-09T02:44:48.689Z,6.20
2017-10-09T02:47:16.786Z,6.30
2017-10-09T02:49:44.850Z,5.53
2017-10-09T02:52:12.946Z,6.77
2017-10-09T02:54:41.010Z,6.40
2017-10-09T02:57:09.856Z,5.60
2017-10-09T02:59:37.910Z,6.80
2017-10-09T03:02:05.971Z,6.80
2017-10-09T03:04:34.042Z,6.87
2017-10-09T03:07:02.128Z,7.63
2017-10-09T03:09:30.189Z,6.00
2017-10-09T03:11:58.272Z,7.00
2017-10-09T03:14:26.342Z,7.90
2017-10-09T03:16:54.415Z,6.87
2017-10-09T03:19:22.466Z,7.67
2017-10-09T03:21:51.175Z,6.83
2017-10-09T03:24:21.931Z,8.40
2017-10-09T03:26:55.753Z,6.20
2017-10-09T03:29:43.564Z,6.40
2017-10-09T03:32:11.612Z,6.30
2017-10-09T03:34:39.683Z,7.30
2017-10-09T03:37:07.752Z,7.23
2017-10-09T03:39:35.836Z,6.87
2017-10-09T03:42:03.908Z,6.70
2017-10-09T03:44:31.971Z,6.07
2017-10-09T03:47:00.086Z,7.20
2017-10-09T03:49:28.130Z,7.20
2017-10-09T03:51:56.944Z,6.73
2017-10-09T03:54:25.770Z,7.27
2017-10-09T03:56:53.855Z,7.67
2017-10-09T03:59:21.939Z,8.30
2017-10-09T04:01:50.004Z,8.50
2017-10-09T04:04:18.087Z,7.90
2017-10-09T04:06:46.127Z,6.93
2017-10-09T04:09:14.202Z,7.77
2017-10-09T04:11:42.274Z,8.67
2017-10-09T04:14:10.358Z,7.40
2017-10-09T04:16:38.422Z,9.10
2017-10-09T04:19:06.502Z,8.87
2017-10-09T04:21:34.569Z,7.90
2017-10-09T04:24:02.608Z,8.10
2017-10-09T04:26:30.690Z,8.87
2017-10-09T04:28:58.753Z,6.97
2017-10-09T04:31:26.830Z,8.70
2017-10-09T04:33:54.923Z,9.30
2017-10-09T04:36:22.984Z,8.30
2017-10-09T04:38:51.070Z,7.57
2017-10-09T04:41:19.138Z,8.03
2017-10-09T04:43:47.219Z,9.17
2017-10-09T04:46:15.278Z,10.93
2017-10-09T04:48:43.373Z,8.50
2017-10-09T04:51:11.444Z,9.30
2017-10-09T04:53:39.499Z,8.80
2017-10-09T04:56:07.931Z,9.23
2017-10-09T04:58:36.779Z,9.77
2017-10-09T05:01:04.867Z,9.17
2017-10-09T05:03:32.976Z,10.00
2017-10-09T05:06:01.060Z,11.40
2017-10-09T05:08:29.133Z,11.00
2017-10-09T05:10:57.212Z,10.03
2017-10-09T05:13:25.326Z,10.90
2017-10-09T05:15:53.429Z,11.30
2017-10-09T05:18:22.251Z,10.50
2017-10-09T05:20:50.342Z,9.70
2017-10-09T05:23:18.417Z,10.17
2017-10-09T05:25:46.493Z,10.10
2017-10-09T05:28:14.566Z,9.60
2017-10-09T05:30:43.412Z,10.40
2017-10-09T05:33:11.506Z,9.40
2017-10-09T05:35:39.607Z,9.60
2017-10-09T05:38:08.443Z,9.77
2017-10-09T05:40:36.557Z,10.70
2017-10-09T05:43:04.638Z,10.17
2017-10-09T05:45:32.698Z,10.33
2017-10-09T05:48:00.790Z,10.53
2017-10-09T05:50:29.628Z,10.30
2017-10-09T05:52:57.703Z,10.90
2017-10-09T05:55:25.775Z,10.23
2017-10-09T05:57:53.864Z,9.93
2017-10-09T06:00:22.075Z,11.20
2017-10-09T06:02:50.918Z,10.20
2017-10-09T06:05:18.986Z,9.40
2017-10-09T06:07:47.066Z,8.57
2017-10-09T06:10:15.130Z,8.63
2017-10-09T06:12:43.260Z,7.87
2017-10-09T06:15:12.096Z,9.30
2017-10-09T06:17:40.174Z,10.40
2017-10-09T06:20:08.266Z,10.43
2017-10-09T06:22:37.147Z,8.97
2017-10-09T06:25:06.145Z,8.23
2017-10-09T06:27:34.994Z,9.50
2017-10-09T06:30:03.081Z,8.43
2017-10-09T06:32:31.150Z,8.20
2017-10-09T06:34:59.206Z,7.73
2017-10-09T06:37:27.291Z,8.07
2017-10-09T06:39:55.346Z,8.03
2017-10-09T06:42:24.225Z,8.83
2017-10-09T06:44:52.290Z,9.70
2017-10-09T06:47:20.383Z,8.40
2017-10-09T06:49:48.454Z,8.50
2017-10-09T06:52:16.551Z,9.10
2017-10-09T06:54:45.387Z,7.87
2017-10-09T06:57:13.479Z,8.40
2017-10-09T06:59:41.580Z,8.20
2017-10-09T07:02:09.665Z,9.80
2017-10-09T07:04:38.513Z,7.80
2017-10-09T07:07:06.572Z,8.17
2017-10-09T07:09:35.283Z,7.10
2017-10-09T07:12:03.359Z,7.40
2017-10-09T07:14:31.454Z,7.30
2017-10-09T07:17:00.280Z,7.40
2017-10-09T07:19:28.376Z,7.47
2017-10-09T07:21:56.438Z,7.63
2017-10-09T07:24:24.518Z,8.37
2017-10-09T07:26:52.591Z,7.97
2017-10-09T07:29:20.672Z,8.20
2017-10-09T07:31:48.782Z,8.73
2017-10-09T07:34:16.866Z,7.80
2017-10-09T07:36:45.707Z,7.60
2017-10-09T07:39:13.816Z,7.77
2017-10-09T07:41:41.891Z,8.70
2017-10-09T07:44:10.726Z,9.17
2017-10-09T07:46:38.802Z,8.30
2017-10-09T07:49:06.878Z,7.80
2017-10-09T07:51:34.935Z,8.57
2017-10-09T07:54:03.026Z,8.17
2017-10-09T07:56:31.127Z,8.60
2017-10-09T07:58:59.196Z,9.30
2017-10-09T08:01:28.034Z,8.77
2017-10-09T08:03:56.120Z,10.00
2017-10-09T08:06:24.199Z,9.37
2017-10-09T08:08:52.333Z,8.93
2017-10-09T08:11:21.159Z,9.73
2017-10-09T08:13:49.298Z,10.30
2017-10-09T08:16:18.139Z,9.67
2017-10-09T08:18:46.210Z,9.47
2017-10-09T08:21:14.282Z,10.23
2017-10-09T08:23:43.154Z,10.13
2017-10-09T08:26:11.245Z,10.80
2017-10-09T08:28:39.322Z,11.23
2017-10-09T08:31:07.394Z,10.37
2017-10-09T08:33:35.485Z,11.53
2017-10-09T08:36:03.579Z,12.43
2017-10-09T08:38:32.458Z,10.80
2017-10-09T08:41:00.536Z,9.40
2017-10-09T08:43:28.667Z,11.30
2017-10-09T08:45:56.752Z,11.60
2017-10-09T08:48:24.808Z,9.70
2017-10-09T08:51:04.190Z,10.13
2017-10-09T08:53:46.774Z,8.50
2017-10-09T08:56:19.192Z,8.70
2017-10-09T09:02:31.642Z,7.63
2017-10-09T09:04:59.893Z,8.20
2017-10-09T09:07:29.202Z,7.57
2017-10-09T09:09:57.413Z,10.30
2017-10-09T09:12:26.369Z,7.67
2017-10-09T09:14:54.732Z,6.87
2017-10-09T09:17:26.069Z,6.87
2017-10-09T09:22:40.373Z,6.80
2017-10-09T09:25:25.193Z,6.73
2017-10-09T09:28:01.542Z,6.60
2017-10-09T09:30:30.658Z,6.67
2017-10-09T09:33:01.893Z,6.33
2017-10-09T09:35:32.994Z,7.53
2017-10-09T09:58:21.990Z,7.53
2017-10-09T10:00:51.194Z,7.33
2017-10-09T10:03:19.478Z,6.53
2017-10-09T10:05:49.328Z,6.47
2017-10-09T10:08:18.679Z,8.40
2017-10-09T10:10:48.365Z,8.70
2017-10-09T10:13:17.083Z,9.13
2017-10-09T10:15:45.398Z,7.87
2017-10-09T10:35:36.568Z,7.50
2017-10-09T10:38:04.911Z,6.93
2017-10-09T10:40:33.248Z,7.80
2017-10-09T10:43:02.582Z,6.93
2017-10-09T10:45:30.982Z,6.80
2017-10-09T10:48:00.601Z,7.50
2017-10-09T10:50:28.837Z,8.73
2017-10-09T10:52:57.173Z,7.27
2017-10-09T10:55:26.838Z,7.80
2017-10-09T10:57:55.090Z,7.60
2017-10-09T11:00:24.041Z,9.30
2017-10-09T11:02:53.027Z,10.60
2017-10-09T11:05:25.712Z,12.03
2017-10-09T11:07:57.050Z,11.50
2017-10-09T11:10:26.529Z,10.53
2017-10-09T11:12:56.247Z,10.90
2017-10-09T11:15:25.267Z,10.97
2017-10-09T11:17:54.061Z,10.13
2017-10-09T11:20:22.901Z,9.40
2017-10-09T11:22:51.303Z,8.40
2017-10-09T11:25:20.595Z,9.00
2017-10-09T11:27:49.479Z,8.57
2017-10-09T11:30:17.550Z,8.60
2017-10-09T11:32:45.616Z,9.30
2017-10-09T11:35:13.706Z,10.80
2017-10-09T11:37:41.766Z,12.53
2017-10-09T11:40:09.859Z,12.33
2017-10-09T11:42:38.684Z,9.50
2017-10-09T11:45:06.762Z,11.80
2017-10-09T11:47:34.877Z,10.47
2017-10-09T11:50:02.933Z,10.03
2017-10-09T11:52:31.015Z,12.40
2017-10-09T11:54:59.072Z,9.90
2017-10-09T11:57:27.164Z,10.37
2017-10-09T11:59:55.235Z,9.80
2017-10-09T12:02:24.079Z,9.30
2017-10-09T12:04:52.163Z,9.53
2017-10-09T12:07:20.279Z,10.73
2017-10-09T12:09:49.153Z,11.70
2017-10-09T12:12:18.163Z,10.60
2017-10-09T12:14:47.018Z,11.73
2017-10-09T12:17:15.878Z,11.70
2017-10-09T12:19:43.938Z,10.90
2017-10-09T12:22:12.029Z,11.70
2017-10-09T12:24:40.102Z,13.73
2017-10-09T12:27:08.172Z,12.60
2017-10-09T12:29:36.265Z,11.17
2017-10-09T12:32:04.314Z,12.30
2017-10-09T12:34:32.400Z,13.53
2017-10-09T12:37:00.498Z,12.97
2017-10-09T12:39:28.559Z,12.60
2017-10-09T12:41:56.650Z,13.40
2017-10-09T12:44:24.734Z,13.23
2017-10-09T12:46:52.806Z,12.30
2017-10-09T12:49:20.891Z,12.93
2017-10-09T12:51:49.731Z,11.83
2017-10-09T12:54:17.815Z,10.83
2017-10-09T12:56:45.905Z,12.33
2017-10-09T12:59:13.969Z,13.00
2017-10-09T13:01:42.064Z,12.93
2017-10-09T13:04:10.945Z,12.40
2017-10-09T13:06:39.000Z,12.37
2017-10-09T13:09:07.074Z,13.07
2017-10-09T13:11:35.147Z,12.00
2017-10-09T13:14:03.211Z,12.90
2017-10-09T13:16:31.286Z,14.80
2017-10-09T13:18:59.369Z,13.70
2017-10-09T13:21:28.207Z,14.00
2017-10-09T13:23:56.303Z,13.87
2017-10-09T13:26:24.657Z,14.97
2017-10-09T13:28:52.727Z,13.67
2017-10-09T13:31:20.813Z,14.67
2017-10-09T13:33:48.891Z,13.50
2017-10-09T13:36:16.993Z,13.07
2017-10-09T13:38:45.085Z,12.53
2017-10-09T13:41:13.176Z,13.83
2017-10-09T13:43:41.235Z,15.90
2017-10-09T13:46:09.890Z,14.67
2017-10-09T13:48:38.713Z,14.57
2017-10-09T13:51:06.800Z,15.77
2017-10-09T13:53:34.896Z,15.30
2017-10-09T13:56:02.967Z,14.17
2017-10-09T13:58:31.047Z,16.70
2017-10-09T14:00:59.890Z,17.40
2017-10-09T14:03:27.953Z,17.43
2017-10-09T14:05:56.053Z,16.23
2017-10-09T14:08:24.134Z,16.20
2017-10-09T14:10:52.198Z,17.90
2017-10-09T14:13:20.283Z,19.50
2017-10-09T14:15:48.341Z,17.50
2017-10-09T14:18:16.427Z,18.40
2017-10-09T14:20:45.267Z,18.73
2017-10-09T14:23:13.343Z,19.20
2017-10-09T14:25:41.647Z,18.93
2017-10-09T14:28:11.759Z,19.00
2017-10-09T14:30:40.041Z,20.40
2017-10-09T14:40:42.331Z,20.90
2017-10-09T14:43:17.880Z,19.47
2017-10-09T14:45:48.467Z,19.03
2017-10-09T14:48:18.150Z,20.50
2017-10-09T14:50:49.152Z,21.37
2017-10-09T14:53:27.637Z,20.90
2017-10-09T14:55:56.455Z,21.67
2017-10-09T14:58:33.048Z,23.23
2017-10-09T15:01:01.395Z,20.47
2017-10-09T15:03:30.025Z,21.20
2017-10-09T15:05:58.393Z,22.70
2017-10-09T15:08:29.761Z,23.03
2017-10-09T15:10:58.203Z,22.73
2017-10-09T15:13:26.868Z,23.27
2017-10-09T15:15:56.117Z,24.23
2017-10-09T15:18:24.834Z,21.93
2017-10-09T15:21:00.116Z,24.10
2017-10-09T15:23:28.390Z,22.10
2017-10-09T15:25:57.238Z,20.07
2017-10-09T15:28:26.329Z,22.30
2017-10-09T15:30:55.425Z,23.07
2017-10-09T15:33:25.342Z,21.90
2017-10-09T15:35:53.945Z,22.90
2017-10-09T15:38:23.095Z,25.43
2017-10-09T15:40:51.488Z,24.83
2017-10-09T15:43:20.748Z,27.07
2017-10-09T15:45:50.162Z,26.40
2017-10-09T15:48:20.067Z,26.07
2017-10-09T15:50:48.426Z,26.10
2017-10-09T15:53:17.379Z,26.37
2017-10-09T15:55:46.347Z,27.13
2017-10-09T15:58:14.335Z,26.23
2017-10-09T16:00:43.114Z,28.73
2017-10-09T16:03:11.234Z,26.83
2017-10-09T16:05:39.680Z,26.80
2017-10-09T16:08:08.016Z,27.73
2017-10-09T16:10:36.282Z,28.10
2017-10-09T16:13:05.523Z,28.97
2017-10-09T16:15:35.021Z,27.87
2017-10-09T16:18:05.104Z,28.07
2017-10-09T16:20:35.252Z,28.37
2017-10-09T16:23:05.520Z,27.40
2017-10-09T16:25:33.821Z,26.90
2017-10-09T16:28:03.350Z,25.83
2017-10-09T16:30:32.776Z,25.70
2017-10-09T16:33:02.393Z,26.37
2017-10-09T16:35:30.877Z,24.40
2017-10-09T16:38:00.618Z,26.90
2017-10-09T16:40:30.379Z,27.33
2017-10-09T16:42:59.264Z,24.43
2017-10-09T16:45:27.647Z,22.47
2017-10-09T16:47:57.935Z,22.60
2017-10-09T16:50:26.972Z,24.33
2017-10-09T16:52:55.429Z,22.53
2017-10-09T16:55:25.421Z,21.43
2017-10-09T16:57:54.073Z,23.40
2017-10-09T17:00:23.175Z,23.47
2017-10-09T17:02:51.759Z,21.77
2017-10-09T17:05:28.451Z,24.33
2017-10-09T17:07:57.976Z,23.47
2017-10-09T17:10:27.128Z,22.60
2017-10-09T17:12:55.541Z,24.47
2017-10-09T17:15:26.008Z,22.70
2017-10-09T17:17:55.166Z,22.67
2017-10-09T17:20:24.274Z,25.93
2017-10-09T17:22:52.908Z,25.20
2017-10-09T17:25:22.259Z,22.40
2017-10-09T17:27:52.121Z,23.73
2017-10-09T17:30:22.878Z,24.33
2017-10-09T17:32:52.733Z,25.57
2017-10-09T17:35:21.359Z,23.10
2017-10-09T17:37:50.847Z,22.60
2017-10-09T17:40:19.515Z,23.60
2017-10-09T17:42:47.812Z,26.33
2017-10-09T17:45:16.121Z,23.47
2017-10-09T17:47:45.298Z,22.90
2017-10-09T17:50:14.418Z,24.60
2017-10-09T17:52:43.699Z,24.40
2017-10-09T17:55:14.536Z,22.33
2017-10-09T17:57:45.438Z,24.53
2017-10-09T18:00:14.385Z,21.67
2017-10-09T18:02:43.228Z,22.53
2017-10-09T18:05:11.288Z,27.00
2017-10-09T18:07:39.872Z,25.80
2017-10-09T18:10:07.988Z,25.73
2017-10-09T18:12:36.060Z,25.80
2017-10-09T18:15:04.127Z,27.43
2017-10-09T18:17:32.193Z,24.93
2017-10-09T18:20:00.291Z,25.77
2017-10-09T18:22:29.119Z,26.60
2017-10-09T18:24:57.198Z,25.30
2017-10-09T18:27:25.269Z,28.00
2017-10-09T18:29:53.369Z,33.07
2017-10-09T18:32:21.452Z,29.67
2017-10-09T18:34:49.533Z,28.40
2017-10-09T18:37:18.400Z,26.63
2017-10-09T18:39:46.515Z,27.87
2017-10-09T18:42:14.633Z,28.53
2017-10-09T18:44:43.489Z,28.53
2017-10-09T18:47:11.589Z,29.13
2017-10-09T18:49:40.439Z,29.73
2017-10-09T18:52:08.529Z,30.10
2017-10-09T18:54:36.596Z,29.37
2017-10-09T18:57:05.474Z,30.90
2017-10-09T18:59:34.000Z,34.60
2017-10-09T19:02:02.861Z,36.40
2017-10-09T19:04:31.083Z,36.70
2017-10-09T19:06:59.257Z,38.37
2017-10-09T19:09:27.368Z,34.90
2017-10-09T19:11:55.452Z,34.90
2017-10-09T19:14:24.301Z,36.30
2017-10-09T19:16:52.407Z,36.13
2017-10-09T19:19:20.539Z,34.73
2017-10-09T19:21:48.624Z,35.87
2017-10-09T19:24:16.704Z,32.90
2017-10-09T19:26:44.821Z,32.83
2017-10-09T19:29:13.685Z,35.57
2017-10-09T19:31:42.569Z,31.33
2017-10-09T19:34:12.162Z,29.70
2017-10-09T19:36:40.247Z,31.63
2017-10-09T19:39:08.400Z,27.73
2017-10-09T19:41:36.494Z,25.30
2017-10-09T19:44:04.752Z,26.80
2017-10-09T19:46:32.823Z,24.87
2017-10-09T19:49:00.999Z,25.10
2017-10-09T19:51:29.069Z,26.80
2017-10-09T19:53:57.150Z,26.77
2017-10-09T19:56:25.246Z,29.73
2017-10-09T19:58:53.344Z,28.43
2017-10-09T20:01:21.519Z,27.90
2017-10-09T20:03:49.590Z,29.17
2017-10-09T20:06:18.424Z,28.07
2017-10-09T20:08:46.484Z,29.30
2017-10-09T20:11:14.579Z,30.40
2017-10-09T20:13:43.432Z,31.43
2017-10-09T20:16:11.866Z,31.17
2017-10-09T20:18:39.963Z,32.67
2017-10-09T20:21:08.776Z,31.53
2017-10-09T20:23:36.878Z,34.03
2017-10-09T20:26:04.948Z,38.27
2017-10-09T20:28:33.811Z,36.33
2017-10-09T20:31:01.879Z,35.17
2017-10-09T20:33:30.742Z,35.77
2017-10-09T20:35:59.574Z,34.43
2017-10-09T20:38:27.677Z,37.10
2017-10-09T20:40:55.794Z,37.73
2017-10-09T20:43:23.883Z,36.30
2017-10-09T20:45:52.921Z,36.97
2017-10-09T20:48:21.760Z,39.90
2017-10-09T20:50:49.877Z,33.83
2017-10-09T20:53:18.727Z,35.43
2017-10-09T20:55:46.792Z,33.80
2017-10-09T20:58:14.872Z,33.43
2017-10-09T21:00:42.988Z,34.00
2017-10-09T21:03:11.038Z,37.57
2017-10-09T21:05:39.892Z,34.43
2017-10-09T21:08:07.972Z,34.77
2017-10-09T21:10:36.061Z,35.40
2017-10-09T21:13:04.130Z,36.57
2017-10-09T21:15:32.245Z,32.80
2017-10-09T21:18:00.327Z,32.53
2017-10-09T21:20:28.381Z,31.43
2017-10-09T21:22:56.463Z,34.17
2017-10-09T21:25:24.540Z,32.23
2017-10-09T21:27:52.628Z,32.20
2017-10-09T21:30:20.689Z,32.07
2017-10-09T21:32:48.787Z,32.13
2017-10-09T21:35:16.868Z,33.63
2017-10-09T21:37:44.976Z,34.60
2017-10-09T21:40:13.046Z,33.50
2017-10-09T21:42:41.123Z,31.03
2017-10-09T21:45:09.185Z,28.13
2017-10-09T21:47:37.269Z,28.07
2017-10-09T21:50:05.343Z,29.90
2017-10-09T21:52:33.437Z,25.23
2017-10-09T21:57:38.219Z,28.30
2017-10-09T22:00:06.428Z,28.73
2017-10-09T22:02:36.029Z,24.23
2017-10-09T22:05:04.093Z,27.37
2017-10-09T22:07:32.213Z,28.67
2017-10-09T22:10:00.290Z,29.20
2017-10-09T22:12:29.124Z,26.07
2017-10-09T22:14:57.179Z,28.80
2017-10-09T22:17:25.247Z,25.73
2017-10-09T22:19:53.334Z,31.80
2017-10-09T22:22:21.553Z,30.83
2017-10-09T22:24:50.423Z,28.13
2017-10-09T22:27:19.271Z,31.80
2017-10-09T22:29:47.412Z,31.50
2017-10-09T22:32:15.458Z,29.83
2017-10-09T22:34:44.334Z,29.40
2017-10-09T22:37:12.417Z,31.47
2017-10-09T22:39:41.343Z,29.70
2017-10-09T22:42:09.415Z,29.33
2017-10-09T22:44:37.480Z,28.97
2017-10-09T22:47:05.555Z,28.57
2017-10-09T22:49:33.681Z,29.80
2017-10-09T22:52:02.538Z,32.90
2017-10-09T22:54:41.554Z,32.70
2017-10-09T22:57:09.636Z,31.70
2017-10-09T22:59:37.706Z,32.63
2017-10-09T23:02:05.755Z,32.83
2017-10-09T23:04:33.848Z,36.07
2017-10-09T23:07:01.912Z,31.00
2017-10-09T23:09:30.018Z,35.27
2017-10-09T23:11:58.847Z,34.57
2017-10-09T23:14:26.929Z,35.70
2017-10-09T23:16:55.019Z,34.93
2017-10-09T23:19:23.091Z,34.50
2017-10-09T23:21:51.163Z,38.57
2017-10-09T23:24:19.283Z,35.33
2017-10-09T23:26:48.104Z,33.83
2017-10-09T23:29:16.174Z,35.70
2017-10-09T23:31:44.245Z,40.10
2017-10-09T23:34:12.327Z,38.80
2017-10-09T23:36:40.410Z,39.70
2017-10-09T23:39:08.479Z,41.40
2017-10-09T23:41:36.560Z,40.10
2017-10-09T23:44:04.658Z,41.17
2017-10-09T23:46:32.731Z,43.83
2017-10-09T23:49:00.811Z,38.80
2017-10-09T23:51:28.868Z,40.73
2017-10-09T23:53:56.943Z,34.60
2017-10-09T23:56:25.003Z,39.40
2017-10-09T23:58:53.084Z,45.60
